Time;durP1;ratioP1;P1;durP2;ratioP2;P2;SDS_P1;SDS_P2;PMS_P1;PMS_P2;Temp;Humidity;BMP_temperature;BMP_pressure;BME280_temperature;BME280_humidity;BME280_pressure;Samples;Min_cycle;Max_cycle;Signal;HPM_P1;HPM_P2
2023/11/29 00:02:03;;;;;;;0.10;0.10;;;21.60;45.90;;;;;;5033508;28;20211;-45
2023/11/29 00:04:34;;;;;;;0.00;0.00;;;21.70;45.90;;;;;;5033606;28;20211;-46
2023/11/29 00:07:05;;;;;;;0.00;0.00;;;21.70;46.60;;;;;;5032258;28;20199;-47
2023/11/29 00:09:38;;;;;;;0.00;0.00;;;21.70;45.90;;;;;;5032827;28;20207;-49
2023/11/29 00:12:09;;;;;;;0.10;0.10;;;21.70;45.90;;;;;;5033212;28;20235;-46
2023/11/29 00:14:39;;;;;;;0.00;0.00;;;21.70;45.90;;;;;;5033343;28;20771;-49
2023/11/29 00:17:10;;;;;;;0.00;0.00;;;21.70;45.90;;;;;;5033275;28;20196;-46
2023/11/29 00:19:43;;;;;;;0.10;0.10;;;21.70;45.90;;;;;;5031156;28;20733;-46
2023/11/29 00:22:14;;;;;;;0.00;0.00;;;21.80;45.90;;;;;;5032685;28;20196;-46
2023/11/29 00:24:49;;;;;;;0.00;0.00;;;21.80;45.90;;;;;;5032156;28;20203;-49
2023/11/29 00:27:21;;;;;;;0.00;0.00;;;21.80;45.80;;;;;;5032607;28;20195;-49
2023/11/29 00:29:51;;;;;;;0.00;0.00;;;21.80;45.80;;;;;;5031759;28;20216;-47
2023/11/29 00:32:22;;;;;;;0.00;0.00;;;21.80;45.80;;;;;;5032211;28;20468;-49
2023/11/29 00:34:53;;;;;;;0.10;0.10;;;21.80;45.80;;;;;;5022151;28;20227;-46
2023/11/29 00:37:23;;;;;;;0.00;0.00;;;21.80;45.70;;;;;;5012284;28;20227;-49
2023/11/29 00:39:56;;;;;;;0.00;0.00;;;21.80;45.70;;;;;;5028652;28;20228;-49
2023/11/29 00:42:26;;;;;;;0.00;0.00;;;21.90;45.70;;;;;;5032099;28;20196;-48
2023/11/29 00:44:57;;;;;;;0.10;0.10;;;21.90;45.70;;;;;;5032086;28;20207;-46
2023/11/29 00:47:28;;;;;;;0.00;0.00;;;21.90;45.70;;;;;;5031515;28;20639;-49
2023/11/29 00:49:59;;;;;;;0.00;0.00;;;21.80;45.60;;;;;;5032116;28;20226;-46
2023/11/29 00:52:29;;;;;;;0.00;0.00;;;21.90;45.70;;;;;;5032361;28;20631;-49
2023/11/29 00:55:02;;;;;;;0.10;0.10;;;21.90;45.70;;;;;;5031805;28;20192;-49
2023/11/29 00:57:32;;;;;;;0.00;0.00;;;21.90;45.70;;;;;;5032066;28;20200;-49
2023/11/29 01:00:05;;;;;;;0.00;0.00;;;21.90;45.70;;;;;;5030573;28;20224;-48
2023/11/29 01:02:36;;;;;;;0.00;0.00;;;21.90;45.70;;;;;;5030894;28;20196;-46
2023/11/29 01:05:07;;;;;;;0.10;0.10;;;21.90;45.60;;;;;;5031248;28;20200;-46
2023/11/29 01:07:37;;;;;;;0.00;0.00;;;21.90;45.60;;;;;;5032108;28;20196;-46
2023/11/29 01:10:11;;;;;;;0.00;0.00;;;22.00;45.70;;;;;;5030760;28;20695;-48
2023/11/29 01:12:41;;;;;;;0.00;0.00;;;22.00;45.80;;;;;;5031667;28;20210;-47
2023/11/29 01:15:12;;;;;;;0.10;0.10;;;22.00;45.70;;;;;;5031016;28;20199;-47
2023/11/29 01:17:43;;;;;;;0.10;0.10;;;22.00;45.70;;;;;;5031787;28;20200;-50
2023/11/29 01:20:14;;;;;;;0.00;0.00;;;22.00;45.60;;;;;;5031399;28;20606;-46
2023/11/29 01:22:45;;;;;;;0.10;0.10;;;22.00;45.60;;;;;;5028362;28;20188;-48
2023/11/29 01:25:17;;;;;;;0.00;0.00;;;22.00;45.50;;;;;;5032072;28;20568;-48
2023/11/29 01:27:48;;;;;;;0.00;0.00;;;22.00;45.40;;;;;;5031146;28;20192;-44
2023/11/29 01:30:19;;;;;;;0.00;0.00;;;22.00;45.40;;;;;;5030428;28;20216;-43
2023/11/29 01:32:49;;;;;;;0.00;0.00;;;22.00;45.40;;;;;;5031118;28;20216;-49
2023/11/29 01:35:20;;;;;;;0.00;0.00;;;22.10;45.50;;;;;;5031108;28;20211;-48
2023/11/29 01:37:51;;;;;;;0.05;0.05;;;22.10;45.40;;;;;;5031451;28;20195;-45
2023/11/29 01:40:23;;;;;;;0.10;0.10;;;22.10;45.30;;;;;;5030469;28;20238;-48
2023/11/29 01:42:54;;;;;;;0.10;0.10;;;22.10;45.30;;;;;;5030525;28;20651;-49
2023/11/29 01:45:25;;;;;;;0.00;0.00;;;22.10;45.30;;;;;;5030930;28;20196;-48
2023/11/29 01:47:55;;;;;;;0.00;0.00;;;22.10;45.20;;;;;;5018962;28;20208;-47
2023/11/29 01:50:32;;;;;;;0.00;0.00;;;22.10;45.20;;;;;;5011970;28;20681;-46
2023/11/29 01:53:02;;;;;;;0.00;0.00;;;22.10;45.20;;;;;;5012535;28;20649;-46
2023/11/29 01:55:37;;;;;;;0.10;0.10;;;22.20;45.20;;;;;;5028792;28;20203;-44
2023/11/29 01:58:07;;;;;;;0.00;0.00;;;22.20;45.20;;;;;;5031608;28;20265;-46
2023/11/29 02:00:38;;;;;;;0.10;0.10;;;22.20;45.20;;;;;;5031852;28;20223;-47
2023/11/29 02:03:09;;;;;;;0.08;0.08;;;22.20;45.20;;;;;;5031967;28;20207;-49
2023/11/29 02:05:40;;;;;;;0.00;0.00;;;22.20;45.20;;;;;;5031517;28;20387;-47
2023/11/29 02:08:11;;;;;;;0.00;0.00;;;22.20;45.10;;;;;;5031765;28;20211;-46
2023/11/29 02:10:44;;;;;;;0.10;0.10;;;22.30;45.10;;;;;;5031675;28;20302;-46
2023/11/29 02:13:14;;;;;;;0.00;0.00;;;22.30;45.20;;;;;;5031335;28;20542;-49
2023/11/29 02:15:45;;;;;;;0.00;0.00;;;22.30;45.10;;;;;;5030954;28;20219;-46
2023/11/29 02:18:16;;;;;;;0.10;0.10;;;22.30;45.20;;;;;;5030968;28;20199;-49
2023/11/29 02:20:47;;;;;;;0.00;0.00;;;22.30;45.20;;;;;;5031175;28;20223;-45
2023/11/29 02:23:24;;;;;;;0.10;0.10;;;22.30;45.10;;;;;;5031396;28;20223;-49
2023/11/29 02:25:56;;;;;;;0.00;0.00;;;22.30;45.10;;;;;;5031530;28;20553;-43
2023/11/29 02:28:27;;;;;;;0.10;0.10;;;22.30;45.10;;;;;;5029831;28;20215;-43
2023/11/29 02:30:57;;;;;;;0.10;0.10;;;22.30;45.00;;;;;;5032752;28;20223;-43
2023/11/29 02:33:28;;;;;;;0.00;0.00;;;22.40;45.00;;;;;;5034783;28;20207;-49
2023/11/29 02:35:59;;;;;;;0.00;0.00;;;22.40;45.10;;;;;;5032945;28;20203;-42
2023/11/29 02:38:30;;;;;;;0.00;0.00;;;22.40;45.00;;;;;;5035544;28;20564;-44
2023/11/29 02:41:02;;;;;;;0.00;0.00;;;22.40;44.90;;;;;;5035937;28;20228;-44
2023/11/29 02:43:33;;;;;;;0.10;0.10;;;22.40;44.90;;;;;;5034897;28;20208;-46
2023/11/29 02:46:04;;;;;;;0.00;0.00;;;22.40;44.90;;;;;;5034991;28;20203;-43
2023/11/29 02:48:34;;;;;;;0.03;0.03;;;22.40;44.90;;;;;;5035187;28;20196;-43
2023/11/29 02:51:05;;;;;;;0.10;0.10;;;22.50;44.90;;;;;;5034871;28;20218;-47
2023/11/29 02:53:36;;;;;;;0.00;0.00;;;22.50;44.80;;;;;;5035537;28;20200;-46
2023/11/29 02:56:11;;;;;;;0.10;0.10;;;22.50;44.80;;;;;;5035105;28;20200;-48
2023/11/29 02:58:42;;;;;;;0.00;0.00;;;22.50;44.90;;;;;;5034565;28;20207;-48
2023/11/29 03:01:13;;;;;;;0.00;0.00;;;22.50;44.80;;;;;;5035003;28;20227;-50
2023/11/29 03:03:43;;;;;;;0.05;0.05;;;22.50;44.70;;;;;;5031892;28;20302;-49
2023/11/29 03:06:14;;;;;;;0.10;0.10;;;22.50;44.70;;;;;;5014906;28;20653;-48
2023/11/29 03:08:45;;;;;;;0.10;0.10;;;22.50;44.70;;;;;;5015143;28;20201;-47
2023/11/29 03:11:18;;;;;;;0.00;0.00;;;22.60;45.40;;;;;;5029345;28;20220;-48
2023/11/29 03:13:48;;;;;;;0.00;0.00;;;22.50;44.80;;;;;;5034606;28;20215;-46
2023/11/29 03:16:19;;;;;;;0.00;0.00;;;22.50;44.80;;;;;;5027624;28;20208;-48
2023/11/29 03:18:50;;;;;;;0.00;0.00;;;22.60;44.80;;;;;;5014366;28;20704;-47
2023/11/29 03:21:20;;;;;;;0.10;0.10;;;22.60;44.80;;;;;;5014517;28;20259;-45
2023/11/29 03:23:51;;;;;;;0.00;0.00;;;22.60;44.70;;;;;;5015120;28;20204;-45
2023/11/29 03:26:24;;;;;;;0.00;0.00;;;22.60;44.70;;;;;;5014842;28;20209;-46
2023/11/29 03:28:54;;;;;;;0.10;0.10;;;22.60;44.60;;;;;;5014467;28;20200;-46
2023/11/29 03:31:25;;;;;;;0.00;0.00;;;22.60;44.60;;;;;;5014076;28;20227;-49
2023/11/29 03:33:56;;;;;;;0.00;0.00;;;22.60;44.60;;;;;;5014484;28;20589;-49
2023/11/29 03:36:26;;;;;;;0.00;0.00;;;22.60;44.60;;;;;;5014480;28;20197;-46
2023/11/29 03:38:57;;;;;;;0.00;0.00;;;22.70;44.60;;;;;;5014634;28;20598;-45
2023/11/29 03:41:30;;;;;;;0.00;0.00;;;22.60;44.60;;;;;;5030300;28;20220;-46
2023/11/29 03:44:00;;;;;;;0.05;0.05;;;22.60;44.50;;;;;;5033261;28;20231;-46
2023/11/29 03:46:31;;;;;;;0.00;0.00;;;22.70;44.50;;;;;;5033829;28;20200;-46
2023/11/29 03:49:02;;;;;;;0.00;0.00;;;22.60;44.40;;;;;;5033801;28;20200;-44
2023/11/29 03:51:34;;;;;;;0.10;0.10;;;22.60;44.40;;;;;;5033271;28;20246;-43
2023/11/29 03:54:04;;;;;;;0.03;0.03;;;22.70;44.30;;;;;;5034468;28;20534;-45
2023/11/29 03:56:37;;;;;;;0.10;0.10;;;22.60;44.20;;;;;;5033867;28;20203;-46
2023/11/29 03:59:08;;;;;;;0.00;0.00;;;22.70;44.10;;;;;;5033912;28;20231;-49
2023/11/29 04:01:38;;;;;;;0.00;0.00;;;22.70;44.10;;;;;;5033957;28;20216;-48
2023/11/29 04:04:09;;;;;;;0.00;0.00;;;22.60;44.00;;;;;;5033901;28;20196;-47
2023/11/29 04:06:40;;;;;;;0.10;0.10;;;22.60;44.00;;;;;;5033822;28;20204;-46
2023/11/29 04:09:10;;;;;;;0.00;0.00;;;22.60;44.00;;;;;;5033088;28;20204;-52
2023/11/29 04:11:46;;;;;;;0.00;0.00;;;22.60;44.00;;;;;;5033376;28;20231;-47
2023/11/29 04:14:17;;;;;;;0.10;0.10;;;22.60;43.90;;;;;;5033655;28;20199;-49
2023/11/29 04:16:47;;;;;;;0.00;0.00;;;22.60;43.90;;;;;;5033266;28;20207;-45
2023/11/29 04:19:18;;;;;;;0.10;0.10;;;22.70;44.00;;;;;;5031628;28;20227;-47
2023/11/29 04:21:49;;;;;;;0.10;0.10;;;22.60;43.90;;;;;;5013503;28;20217;-47
2023/11/29 04:24:19;;;;;;;0.00;0.00;;;22.60;43.90;;;;;;5013321;28;20196;-46
2023/11/29 04:26:52;;;;;;;0.03;0.03;;;22.60;43.80;;;;;;5013512;28;20200;-47
2023/11/29 04:29:23;;;;;;;0.00;0.00;;;22.60;43.70;;;;;;5013460;28;20201;-46
2023/11/29 04:31:53;;;;;;;0.10;0.10;;;22.60;43.70;;;;;;5029715;28;20196;-47
2023/11/29 04:34:24;;;;;;;0.00;0.00;;;22.60;43.70;;;;;;5033169;28;20558;-45
2023/11/29 04:36:56;;;;;;;0.10;0.10;;;22.60;43.60;;;;;;5033542;28;20196;-47
2023/11/29 04:39:27;;;;;;;0.00;0.00;;;22.60;43.60;;;;;;5033149;28;20223;-46
2023/11/29 04:42:00;;;;;;;0.10;0.10;;;22.60;43.60;;;;;;5013297;28;20200;-45
2023/11/29 04:44:30;;;;;;;0.00;0.00;;;22.50;43.60;;;;;;5013919;28;20208;-46
2023/11/29 04:47:01;;;;;;;0.00;0.00;;;22.50;43.60;;;;;;5032622;28;20197;-47
2023/11/29 04:49:32;;;;;;;0.08;0.08;;;22.50;43.60;;;;;;5032364;28;20196;-47
2023/11/29 04:52:02;;;;;;;0.00;0.00;;;22.50;43.60;;;;;;5032547;28;20599;-45
2023/11/29 04:54:33;;;;;;;0.00;0.00;;;22.50;43.60;;;;;;5033010;28;20211;-46
2023/11/29 04:57:06;;;;;;;0.00;0.00;;;22.50;43.60;;;;;;5032819;28;20531;-48
2023/11/29 04:59:38;;;;;;;0.10;0.10;;;22.50;43.60;;;;;;5032434;28;20235;-49
2023/11/29 05:02:09;;;;;;;0.10;0.10;;;22.40;43.60;;;;;;5032599;28;20279;-44
2023/11/29 05:04:40;;;;;;;0.00;0.00;;;22.40;43.60;;;;;;5032750;28;20670;-47
2023/11/29 05:07:10;;;;;;;0.00;0.00;;;22.40;43.50;;;;;;5032503;28;20196;-48
2023/11/29 05:09:41;;;;;;;0.00;0.00;;;22.50;43.60;;;;;;5032242;28;20556;-47
2023/11/29 05:12:14;;;;;;;0.10;0.10;;;22.40;43.60;;;;;;5026859;28;20185;-47
2023/11/29 05:14:44;;;;;;;0.00;0.00;;;22.40;43.50;;;;;;5012548;28;20207;-47
2023/11/29 05:17:15;;;;;;;0.10;0.10;;;22.40;43.50;;;;;;5014776;28;20586;-46
2023/11/29 05:19:46;;;;;;;0.08;0.08;;;22.40;43.50;;;;;;5012057;28;20225;-47
2023/11/29 05:22:16;;;;;;;0.10;0.10;;;22.40;43.50;;;;;;5012372;28;20196;-48
2023/11/29 05:24:47;;;;;;;0.00;0.00;;;22.40;43.50;;;;;;5012642;28;20196;-45
2023/11/29 05:27:20;;;;;;;0.10;0.10;;;22.40;43.50;;;;;;5012547;28;20205;-48
2023/11/29 05:29:51;;;;;;;0.00;0.00;;;22.30;43.40;;;;;;5012899;28;20341;-49
2023/11/29 05:32:21;;;;;;;0.00;0.00;;;22.40;43.50;;;;;;5012304;28;20204;-47
2023/11/29 05:34:52;;;;;;;0.00;0.00;;;22.30;43.40;;;;;;5012027;28;20211;-48
2023/11/29 05:37:23;;;;;;;0.10;0.10;;;22.30;43.40;;;;;;5011733;28;20216;-49
2023/11/29 05:39:55;;;;;;;0.10;0.10;;;22.30;43.40;;;;;;5030559;28;20223;-47
2023/11/29 05:42:27;;;;;;;0.10;0.10;;;22.30;43.50;;;;;;5021208;28;20232;-45
2023/11/29 05:44:58;;;;;;;0.00;0.00;;;22.30;43.50;;;;;;5031206;28;20208;-47
2023/11/29 05:47:29;;;;;;;0.00;0.00;;;22.30;43.50;;;;;;5031222;28;20211;-48
2023/11/29 05:50:00;;;;;;;0.00;0.00;;;22.30;43.50;;;;;;5030887;28;20633;-47
2023/11/29 05:52:31;;;;;;;0.00;0.00;;;22.20;43.50;;;;;;5025640;28;20258;-45
2023/11/29 05:55:02;;;;;;;0.00;0.00;;;22.20;43.60;;;;;;5012480;28;20197;-48
2023/11/29 05:57:34;;;;;;;0.10;0.10;;;22.20;43.50;;;;;;5011592;28;20200;-48
2023/11/29 06:00:09;;;;;;;0.00;0.00;;;22.20;44.10;;;;;;5013453;28;21164;-48
2023/11/29 06:02:40;;;;;;;0.00;0.00;;;22.20;43.50;;;;;;5011272;28;20656;-44
2023/11/29 06:05:11;;;;;;;0.10;0.10;;;22.20;43.50;;;;;;5010851;28;20188;-47
2023/11/29 06:07:42;;;;;;;0.10;0.10;;;22.20;43.50;;;;;;5010637;28;20197;-47
2023/11/29 06:10:13;;;;;;;0.05;0.05;;;22.20;43.50;;;;;;5017320;28;20588;-45
2023/11/29 06:12:46;;;;;;;0.00;0.00;;;22.20;43.50;;;;;;5031215;28;20347;-47
2023/11/29 06:15:17;;;;;;;0.03;0.03;;;22.20;43.50;;;;;;5031394;28;20196;-48
2023/11/29 06:17:47;;;;;;;0.03;0.03;;;22.20;43.50;;;;;;5029623;28;20572;-48
2023/11/29 06:20:21;;;;;;;0.10;0.10;;;22.10;43.40;;;;;;5011162;28;20235;-47
2023/11/29 06:22:53;;;;;;;0.00;0.00;;;22.10;43.50;;;;;;5012324;28;20284;-45
2023/11/29 06:25:23;;;;;;;0.10;0.10;;;22.10;43.50;;;;;;5031298;28;20196;-48
2023/11/29 06:27:56;;;;;;;0.00;0.00;;;22.10;43.50;;;;;;5031096;28;20203;-47
2023/11/29 06:30:29;;;;;;;0.03;0.03;;;22.10;43.50;;;;;;5030988;28;20227;-45
2023/11/29 06:33:00;;;;;;;0.10;0.10;;;22.10;43.60;;;;;;5031030;28;20203;-47
2023/11/29 06:35:31;;;;;;;0.10;0.10;;;22.10;43.60;;;;;;5030885;28;20589;-49
2023/11/29 06:38:02;;;;;;;0.00;0.00;;;22.10;43.60;;;;;;5011950;28;20556;-47
2023/11/29 06:40:33;;;;;;;0.00;0.00;;;22.10;43.60;;;;;;5017821;28;20242;-45
2023/11/29 06:43:07;;;;;;;0.00;0.00;;;22.00;43.60;;;;;;5028523;28;20211;-48
2023/11/29 06:45:38;;;;;;;0.03;0.03;;;22.00;43.60;;;;;;5030483;28;20575;-49
2023/11/29 06:48:09;;;;;;;0.00;0.00;;;22.10;43.70;;;;;;5030171;28;20196;-47
2023/11/29 06:50:39;;;;;;;0.08;0.08;;;22.10;43.60;;;;;;5030154;28;20212;-47
2023/11/29 06:53:10;;;;;;;0.00;0.00;;;22.00;43.60;;;;;;5030604;28;20564;-45
2023/11/29 06:55:41;;;;;;;0.00;0.00;;;22.00;43.50;;;;;;5030967;28;20204;-48
2023/11/29 06:58:13;;;;;;;0.03;0.03;;;22.00;43.60;;;;;;5030609;28;20191;-48
2023/11/29 07:00:44;;;;;;;0.00;0.00;;;22.00;43.50;;;;;;5030389;28;20231;-47
2023/11/29 07:03:15;;;;;;;0.00;0.00;;;22.00;43.50;;;;;;5030005;28;20204;-45
2023/11/29 07:05:46;;;;;;;0.00;0.00;;;22.00;43.50;;;;;;5030650;28;20211;-45
2023/11/29 07:08:17;;;;;;;0.00;0.00;;;21.90;43.50;;;;;;5029733;28;20595;-44
2023/11/29 07:10:47;;;;;;;0.10;0.10;;;21.90;43.50;;;;;;5030172;28;20224;-47
2023/11/29 07:13:20;;;;;;;0.03;0.03;;;21.90;43.60;;;;;;5030464;28;20203;-50
2023/11/29 07:15:56;;;;;;;0.10;0.10;;;21.90;43.50;;;;;;5030182;28;20196;-45
2023/11/29 07:18:27;;;;;;;0.00;0.00;;;21.90;43.60;;;;;;5028426;28;20204;-45
2023/11/29 07:20:58;;;;;;;0.00;0.00;;;21.90;43.60;;;;;;5034210;28;20286;-46
2023/11/29 07:23:29;;;;;;;0.10;0.10;;;21.90;43.60;;;;;;5034197;28;20200;-46
2023/11/29 07:26:00;;;;;;;0.00;0.00;;;21.90;43.70;;;;;;5034609;28;20207;-47
2023/11/29 07:28:32;;;;;;;0.10;0.10;;;21.90;43.70;;;;;;5034715;28;20447;-47
2023/11/29 07:31:03;;;;;;;0.00;0.00;;;21.80;43.70;;;;;;5033434;28;20403;-48
2023/11/29 07:33:34;;;;;;;0.08;0.08;;;21.90;43.70;;;;;;5033574;28;20204;-47
2023/11/29 07:36:10;;;;;;;0.00;0.00;;;21.80;43.70;;;;;;5034045;28;20196;-47
2023/11/29 07:38:40;;;;;;;0.10;0.10;;;21.90;43.70;;;;;;5025049;28;20197;-45
2023/11/29 07:41:11;;;;;;;0.10;0.10;;;21.80;43.70;;;;;;5027982;28;20612;-47
2023/11/29 07:43:44;;;;;;;0.10;0.10;;;21.80;43.70;;;;;;5016331;28;20557;-43
2023/11/29 07:46:18;;;;;;;0.10;0.10;;;21.80;43.70;;;;;;5015154;28;20196;-47
2023/11/29 07:48:48;;;;;;;0.10;0.10;;;21.80;43.70;;;;;;5033031;28;20242;-49
2023/11/29 07:51:21;;;;;;;0.00;0.00;;;21.80;43.70;;;;;;5033313;28;20220;-47
2023/11/29 07:53:52;;;;;;;0.00;0.00;;;21.80;43.80;;;;;;5033886;28;20633;-48
2023/11/29 07:56:22;;;;;;;0.00;0.00;;;21.80;43.70;;;;;;5029208;28;20610;-46
2023/11/29 07:58:55;;;;;;;0.00;0.00;;;21.80;43.70;;;;;;5014245;28;20280;-45
2023/11/29 08:01:26;;;;;;;0.03;0.03;;;21.70;43.70;;;;;;5013652;28;20268;-47
2023/11/29 08:03:57;;;;;;;0.10;0.10;;;21.70;43.70;;;;;;5013501;28;20288;-46
2023/11/29 08:06:28;;;;;;;0.10;0.10;;;21.70;43.70;;;;;;5012500;28;20664;-47
2023/11/29 08:08:59;;;;;;;0.00;0.00;;;21.70;43.70;;;;;;5016217;28;20202;-46
2023/11/29 08:11:29;;;;;;;0.00;0.00;;;21.70;43.80;;;;;;5030476;28;20224;-49
2023/11/29 08:14:02;;;;;;;0.00;0.00;;;21.60;43.70;;;;;;5030316;28;20564;-47
2023/11/29 08:16:33;;;;;;;0.10;0.10;;;21.70;43.80;;;;;;5030345;28;20644;-47
2023/11/29 08:19:05;;;;;;;0.00;0.00;;;21.60;43.70;;;;;;5032775;28;20211;-47
2023/11/29 08:21:36;;;;;;;0.00;0.00;;;21.70;43.80;;;;;;5032492;28;20230;-49
2023/11/29 08:24:07;;;;;;;0.10;0.10;;;21.70;43.80;;;;;;5032987;28;20203;-47
2023/11/29 08:26:38;;;;;;;0.00;0.00;;;21.60;43.70;;;;;;5029306;28;20196;-45
2023/11/29 08:29:11;;;;;;;0.00;0.00;;;21.60;43.70;;;;;;5012102;28;20228;-46
2023/11/29 08:31:40;;;;;;;0.10;0.10;;;21.60;43.80;;;;;;5012756;28;20267;-46
2023/11/29 08:34:11;;;;;;;0.10;0.10;;;21.60;43.70;;;;;;5032811;28;20231;-47
2023/11/29 08:36:41;;;;;;;0.00;0.00;;;21.60;43.80;;;;;;5032889;28;20219;-48
2023/11/29 08:39:13;;;;;;;0.00;0.00;;;21.60;43.80;;;;;;5024616;28;20197;-46
2023/11/29 08:41:44;;;;;;;0.00;0.00;;;21.60;43.80;;;;;;5031918;28;20232;-47
2023/11/29 08:44:17;;;;;;;0.00;0.00;;;21.60;43.80;;;;;;5031024;28;20254;-47
2023/11/29 08:46:48;;;;;;;0.00;0.00;;;21.50;43.70;;;;;;5032651;28;20192;-47
2023/11/29 08:49:19;;;;;;;0.10;0.10;;;21.50;43.80;;;;;;5030976;28;20289;-45
2023/11/29 08:51:50;;;;;;;0.00;0.00;;;21.50;43.80;;;;;;5031791;28;20295;-44
2023/11/29 08:54:22;;;;;;;0.10;0.10;;;21.50;43.80;;;;;;5033171;28;20192;-47
2023/11/29 08:56:53;;;;;;;0.10;0.10;;;21.50;43.80;;;;;;5032818;28;20223;-47
2023/11/29 08:59:28;;;;;;;0.00;0.00;;;21.50;43.80;;;;;;5032795;28;20200;-47
2023/11/29 09:01:59;;;;;;;0.00;0.00;;;21.50;43.80;;;;;;5032183;28;20220;-48
2023/11/29 09:04:30;;;;;;;0.00;0.00;;;21.50;43.80;;;;;;5032058;28;20196;-45
2023/11/29 09:07:04;;;;;;;0.10;0.10;;;21.40;43.90;;;;;;5031917;28;20196;-45
2023/11/29 09:09:35;;;;;;;0.10;0.10;;;21.40;43.80;;;;;;5029682;28;20202;-48
2023/11/29 09:12:06;;;;;;;0.00;0.00;;;21.40;43.80;;;;;;5028525;28;20199;-48
2023/11/29 09:14:38;;;;;;;0.10;0.10;;;21.40;43.90;;;;;;5031090;28;20587;-48
2023/11/29 09:17:09;;;;;;;0.05;0.05;;;21.40;43.80;;;;;;5030751;28;20566;-47
2023/11/29 09:19:41;;;;;;;0.00;0.00;;;21.40;43.80;;;;;;5032463;28;20196;-48
2023/11/29 09:22:11;;;;;;;0.00;0.00;;;21.40;43.90;;;;;;5032280;28;20278;-46
2023/11/29 09:24:42;;;;;;;0.00;0.00;;;21.30;43.80;;;;;;5032539;28;20192;-45
2023/11/29 09:27:13;;;;;;;0.00;0.00;;;21.30;43.80;;;;;;5032280;28;20206;-48
2023/11/29 09:29:46;;;;;;;0.10;0.10;;;21.30;43.80;;;;;;5031606;28;20577;-48
2023/11/29 09:32:17;;;;;;;0.00;0.00;;;21.30;43.80;;;;;;5031763;28;20203;-45
2023/11/29 09:34:48;;;;;;;0.10;0.10;;;21.30;43.80;;;;;;5032451;28;20250;-45
2023/11/29 09:37:19;;;;;;;0.10;0.10;;;21.30;43.90;;;;;;5031760;28;20224;-50
2023/11/29 09:39:49;;;;;;;0.03;0.03;;;21.30;43.90;;;;;;5028589;28;20221;-44
2023/11/29 09:42:21;;;;;;;0.08;0.08;;;21.30;43.90;;;;;;5031839;28;20227;-45
2023/11/29 09:44:56;;;;;;;0.00;0.00;;;21.30;43.90;;;;;;5031794;28;20243;-46
2023/11/29 09:47:26;;;;;;;0.00;0.00;;;21.20;43.90;;;;;;5031835;28;20687;-47
2023/11/29 09:50:00;;;;;;;0.00;0.00;;;21.30;44.00;;;;;;5031622;28;20220;-48
2023/11/29 09:52:37;;;;;;;0.10;0.10;;;21.20;43.90;;;;;;5031577;28;20196;-42
2023/11/29 09:55:09;;;;;;;0.10;0.10;;;21.20;44.00;;;;;;5031678;28;20568;-48
2023/11/29 09:57:39;;;;;;;0.00;0.00;;;21.20;44.00;;;;;;5031796;28;20643;-49
2023/11/29 10:00:15;;;;;;;0.03;0.03;;;21.20;44.20;;;;;;5031723;28;20235;-48
2023/11/29 10:02:46;;;;;;;0.05;0.05;;;21.20;44.30;;;;;;5031550;28;20227;-46
2023/11/29 10:05:17;;;;;;;0.00;0.00;;;21.20;44.20;;;;;;5031936;28;20204;-51
2023/11/29 10:07:49;;;;;;;0.00;0.00;;;21.20;44.30;;;;;;5031773;28;20222;-48
2023/11/29 10:10:20;;;;;;;0.00;0.00;;;21.20;44.30;;;;;;5031722;28;20455;-46
2023/11/29 10:12:50;;;;;;;0.00;0.00;;;21.20;44.30;;;;;;5031788;28;20288;-46
2023/11/29 10:15:23;;;;;;;0.00;0.00;;;21.20;44.30;;;;;;5026605;28;20251;-48
2023/11/29 10:17:54;;;;;;;0.00;0.00;;;21.20;44.30;;;;;;5028896;28;20734;-47
2023/11/29 10:20:29;;;;;;;0.00;0.00;;;21.20;44.30;;;;;;5030698;28;20223;-48
2023/11/29 10:23:00;;;;;;;0.00;0.00;;;21.10;44.20;;;;;;5030897;28;20218;-47
2023/11/29 10:25:34;;;;;;;0.00;0.00;;;21.10;44.20;;;;;;5030617;28;20196;-48
2023/11/29 10:28:05;;;;;;;0.10;0.10;;;21.10;44.30;;;;;;5030648;28;20548;-48
2023/11/29 10:30:37;;;;;;;0.10;0.10;;;21.10;44.30;;;;;;5030846;28;20671;-47
2023/11/29 10:33:11;;;;;;;0.10;0.10;;;21.10;44.30;;;;;;5029530;28;20254;-47
2023/11/29 10:35:42;;;;;;;0.00;0.00;;;21.10;44.30;;;;;;5030214;28;20469;-48
2023/11/29 10:38:15;;;;;;;0.00;0.00;;;21.10;44.30;;;;;;5010851;28;20197;-48
2023/11/29 10:40:46;;;;;;;0.08;0.08;;;21.10;44.30;;;;;;5021459;28;20227;-46
2023/11/29 10:43:22;;;;;;;0.10;0.10;;;21.10;44.30;;;;;;5028736;28;20684;-45
2023/11/29 10:46:01;;;;;;;0.08;0.08;;;21.10;44.30;;;;;;5030155;28;20698;-48
2023/11/29 10:48:35;;;;;;;0.05;0.05;;;21.00;44.30;;;;;;5030388;28;20206;-45
2023/11/29 10:51:06;;;;;;;0.00;0.00;;;21.10;44.30;;;;;;5031833;28;20235;-48
2023/11/29 10:53:37;;;;;;;0.08;0.08;;;21.00;44.20;;;;;;5035078;28;20534;-48
2023/11/29 10:56:10;;;;;;;0.10;0.10;;;21.00;44.30;;;;;;5034397;28;20188;-48
2023/11/29 10:58:48;;;;;;;0.00;0.00;;;21.00;44.30;;;;;;5034649;28;20193;-46
2023/11/29 11:01:34;;;;;;;0.00;0.00;;;21.00;44.30;;;;;;5032876;28;20220;-50
2023/11/29 11:04:08;;;;;;;0.10;0.10;;;21.00;44.30;;;;;;5033689;28;20196;-48
2023/11/29 11:06:43;;;;;;;0.10;0.10;;;21.00;44.30;;;;;;5034672;28;20198;-50
2023/11/29 11:09:32;;;;;;;0.00;0.00;;;21.00;44.30;;;;;;5032336;28;20184;-48
2023/11/29 11:12:03;;;;;;;0.10;0.10;;;20.90;44.30;;;;;;5033721;28;20193;-47
2023/11/29 11:14:47;;;;;;;0.00;0.00;;;20.90;44.30;;;;;;5032018;28;20188;-47
2023/11/29 11:17:22;;;;;;;0.00;0.00;;;20.90;44.90;;;;;;5032957;28;20196;-44
2023/11/29 11:19:54;;;;;;;0.00;0.00;;;20.90;44.30;;;;;;5031653;28;20208;-49
2023/11/29 11:22:40;;;;;;;0.00;0.00;;;20.90;44.30;;;;;;5032112;28;20235;-48
2023/11/29 11:25:13;;;;;;;0.10;0.10;;;20.90;44.40;;;;;;5034293;28;20250;-48
2023/11/29 11:27:45;;;;;;;0.05;0.05;;;20.90;44.30;;;;;;5034256;28;20188;-48
2023/11/29 11:30:44;;;;;;;0.00;0.00;;;20.90;44.40;;;;;;5034189;28;20224;-48
2023/11/29 11:33:16;;;;;;;0.10;0.10;;;20.90;44.30;;;;;;5034158;28;20266;-50
2023/11/29 11:35:49;;;;;;;0.10;0.10;;;20.80;44.30;;;;;;5034514;28;20200;-48
2023/11/29 11:38:20;;;;;;;0.10;0.10;;;20.90;44.30;;;;;;5033799;28;20197;-46
2023/11/29 11:40:51;;;;;;;0.10;0.10;;;20.90;44.40;;;;;;5033982;28;20212;-48
2023/11/29 11:43:22;;;;;;;0.10;0.10;;;20.90;44.30;;;;;;5034466;28;20219;-47
2023/11/29 11:45:52;;;;;;;0.00;0.00;;;20.80;44.30;;;;;;5034470;28;20192;-48
2023/11/29 11:48:25;;;;;;;0.00;0.00;;;20.90;44.40;;;;;;5034133;28;20702;-46
2023/11/29 11:50:58;;;;;;;0.10;0.10;;;20.80;44.30;;;;;;5033974;28;20223;-47
2023/11/29 11:53:28;;;;;;;0.10;0.10;;;20.80;44.30;;;;;;5034352;28;20204;-50
2023/11/29 11:55:59;;;;;;;0.10;0.10;;;20.80;44.30;;;;;;5033735;28;20232;-49
2023/11/29 11:58:30;;;;;;;0.00;0.00;;;20.80;44.30;;;;;;5033770;28;20200;-45
2023/11/29 12:01:01;;;;;;;0.00;0.00;;;20.80;44.30;;;;;;5034030;28;20227;-48
2023/11/29 12:03:33;;;;;;;0.10;0.10;;;20.80;44.40;;;;;;5032533;28;20231;-47
2023/11/29 12:06:05;;;;;;;0.00;0.00;;;20.80;44.40;;;;;;5034032;28;20204;-45
2023/11/29 12:08:37;;;;;;;0.00;0.00;;;20.70;44.30;;;;;;5034060;28;20262;-45
2023/11/29 12:11:10;;;;;;;0.08;0.08;;;20.80;44.40;;;;;;5033565;28;20416;-45
2023/11/29 12:13:41;;;;;;;0.00;0.00;;;20.70;44.30;;;;;;5033381;28;20561;-45
2023/11/29 12:16:18;;;;;;;0.10;0.10;;;20.70;44.30;;;;;;5033201;28;20199;-44
2023/11/29 12:18:51;;;;;;;0.00;0.00;;;20.80;44.40;;;;;;5033405;28;20254;-47
2023/11/29 12:21:22;;;;;;;0.10;0.10;;;20.70;44.30;;;;;;5031988;28;20696;-48
2023/11/29 12:23:53;;;;;;;0.10;0.10;;;20.70;44.30;;;;;;5033723;28;20207;-48
2023/11/29 12:26:23;;;;;;;0.00;0.00;;;20.70;44.30;;;;;;5033650;28;20196;-51
2023/11/29 12:28:56;;;;;;;0.10;0.10;;;20.70;44.30;;;;;;5033303;28;20207;-50
2023/11/29 12:31:27;;;;;;;0.00;0.00;;;20.70;44.30;;;;;;5033359;28;20501;-47
2023/11/29 12:34:00;;;;;;;0.00;0.00;;;20.70;44.30;;;;;;5033345;28;20200;-47
2023/11/29 12:36:31;;;;;;;0.00;0.00;;;20.70;44.30;;;;;;5033490;28;20208;-47
2023/11/29 12:39:04;;;;;;;0.00;0.00;;;20.70;44.30;;;;;;5032466;28;20215;-49
2023/11/29 12:41:35;;;;;;;0.10;0.10;;;20.70;44.30;;;;;;5032450;28;20220;-48
2023/11/29 12:44:09;;;;;;;0.10;0.10;;;20.70;44.30;;;;;;5032864;28;20226;-47
2023/11/29 12:46:40;;;;;;;0.00;0.00;;;20.70;44.30;;;;;;5032844;28;20195;-45
2023/11/29 12:49:12;;;;;;;0.00;0.00;;;20.60;44.30;;;;;;5031432;28;20196;-48
2023/11/29 12:51:43;;;;;;;0.10;0.10;;;20.60;44.90;;;;;;5032772;28;20216;-48
2023/11/29 12:54:14;;;;;;;0.10;0.10;;;20.60;44.30;;;;;;5033402;28;20196;-46
2023/11/29 12:56:45;;;;;;;0.03;0.03;;;20.60;44.40;;;;;;5032974;28;20230;-47
2023/11/29 12:59:16;;;;;;;0.03;0.03;;;20.60;44.40;;;;;;5033083;28;20251;-48
2023/11/29 13:01:46;;;;;;;0.10;0.10;;;20.60;44.40;;;;;;5032773;28;20216;-48
2023/11/29 13:04:19;;;;;;;0.00;0.00;;;20.60;44.40;;;;;;5032132;28;20192;-48
2023/11/29 13:06:50;;;;;;;0.10;0.10;;;20.60;44.40;;;;;;5032682;28;20196;-48
2023/11/29 13:09:21;;;;;;;0.10;0.10;;;20.60;44.40;;;;;;5032623;28;20196;-49
2023/11/29 13:11:51;;;;;;;0.10;0.10;;;20.60;44.40;;;;;;5032454;28;20231;-49